sensor_id;sensor_type;location;lat;lon;timestamp;P1;durP1;ratioP1;P2;durP2;ratioP2
6378;SDS011;3222;48.858;10.128;2024-01-16T00:01:20;7.03;;;6.23;;
6378;SDS011;3222;48.858;10.128;2024-01-16T00:03:46;8.57;;;6.17;;
6378;SDS011;3222;48.858;10.128;2024-01-16T00:06:11;9.83;;;6.53;;
6378;SDS011;3222;48.858;10.128;2024-01-16T00:08:37;6.43;;;5.43;;
6378;SDS011;3222;48.858;10.128;2024-01-16T00:11:03;6.60;;;5.90;;
6378;SDS011;3222;48.858;10.128;2024-01-16T00:13:29;7.13;;;5.43;;
6378;SDS011;3222;48.858;10.128;2024-01-16T00:15:55;7.87;;;5.80;;
6378;SDS011;3222;48.858;10.128;2024-01-16T00:18:23;9.20;;;6.70;;
6378;SDS011;3222;48.858;10.128;2024-01-16T00:20:49;9.07;;;6.33;;
6378;SDS011;3222;48.858;10.128;2024-01-16T00:23:15;8.33;;;5.83;;
6378;SDS011;3222;48.858;10.128;2024-01-16T00:25:40;7.43;;;6.03;;
6378;SDS011;3222;48.858;10.128;2024-01-16T00:28:06;8.17;;;5.60;;
6378;SDS011;3222;48.858;10.128;2024-01-16T00:30:32;7.83;;;5.93;;
6378;SDS011;3222;48.858;10.128;2024-01-16T00:32:58;8.77;;;6.10;;
6378;SDS011;3222;48.858;10.128;2024-01-16T00:35:24;8.07;;;5.80;;
6378;SDS011;3222;48.858;10.128;2024-01-16T00:37:50;8.53;;;6.00;;
6378;SDS011;3222;48.858;10.128;2024-01-16T00:40:16;7.03;;;5.80;;
6378;SDS011;3222;48.858;10.128;2024-01-16T00:42:42;8.37;;;6.00;;
6378;SDS011;3222;48.858;10.128;2024-01-16T00:45:08;5.93;;;5.33;;
6378;SDS011;3222;48.858;10.128;2024-01-16T00:47:33;9.83;;;6.20;;
6378;SDS011;3222;48.858;10.128;2024-01-16T00:49:59;9.10;;;6.10;;
6378;SDS011;3222;48.858;10.128;2024-01-16T00:52:26;8.40;;;5.60;;
6378;SDS011;3222;48.858;10.128;2024-01-16T00:54:52;6.27;;;5.53;;
6378;SDS011;3222;48.858;10.128;2024-01-16T00:57:17;8.23;;;5.53;;
6378;SDS011;3222;48.858;10.128;2024-01-16T00:59:45;6.03;;;5.40;;
6378;SDS011;3222;48.858;10.128;2024-01-16T01:02:11;9.37;;;5.93;;
6378;SDS011;3222;48.858;10.128;2024-01-16T01:04:37;6.90;;;5.70;;
6378;SDS011;3222;48.858;10.128;2024-01-16T01:07:03;6.90;;;5.43;;
6378;SDS011;3222;48.858;10.128;2024-01-16T01:09:29;8.23;;;5.73;;
6378;SDS011;3222;48.858;10.128;2024-01-16T01:11:54;6.13;;;5.03;;
6378;SDS011;3222;48.858;10.128;2024-01-16T01:14:20;6.70;;;5.70;;
6378;SDS011;3222;48.858;10.128;2024-01-16T01:16:46;7.43;;;5.67;;
6378;SDS011;3222;48.858;10.128;2024-01-16T01:19:11;6.60;;;5.57;;
6378;SDS011;3222;48.858;10.128;2024-01-16T01:21:37;7.30;;;5.47;;
6378;SDS011;3222;48.858;10.128;2024-01-16T01:24:03;8.37;;;6.13;;
6378;SDS011;3222;48.858;10.128;2024-01-16T01:26:29;8.30;;;5.87;;
6378;SDS011;3222;48.858;10.128;2024-01-16T01:28:54;7.43;;;5.90;;
6378;SDS011;3222;48.858;10.128;2024-01-16T01:31:20;8.03;;;6.03;;
6378;SDS011;3222;48.858;10.128;2024-01-16T01:33:46;8.27;;;6.03;;
6378;SDS011;3222;48.858;10.128;2024-01-16T01:36:12;7.67;;;6.13;;
6378;SDS011;3222;48.858;10.128;2024-01-16T01:38:38;9.63;;;6.80;;
6378;SDS011;3222;48.858;10.128;2024-01-16T01:41:03;9.63;;;6.33;;
6378;SDS011;3222;48.858;10.128;2024-01-16T01:43:29;10.37;;;6.40;;
6378;SDS011;3222;48.858;10.128;2024-01-16T01:48:43;7.33;;;5.70;;
6378;SDS011;3222;48.858;10.128;2024-01-16T01:51:13;6.03;;;5.43;;
6378;SDS011;3222;48.858;10.128;2024-01-16T01:53:42;7.67;;;6.20;;
6378;SDS011;3222;48.858;10.128;2024-01-16T01:56:14;7.67;;;5.63;;
6378;SDS011;3222;48.858;10.128;2024-01-16T01:58:41;7.37;;;5.77;;
6378;SDS011;3222;48.858;10.128;2024-01-16T02:01:08;6.97;;;5.67;;
6378;SDS011;3222;48.858;10.128;2024-01-16T02:03:43;8.13;;;5.27;;
6378;SDS011;3222;48.858;10.128;2024-01-16T02:06:13;6.50;;;5.70;;
6378;SDS011;3222;48.858;10.128;2024-01-16T02:08:41;7.43;;;5.43;;
6378;SDS011;3222;48.858;10.128;2024-01-16T02:11:07;6.10;;;5.27;;
6378;SDS011;3222;48.858;10.128;2024-01-16T02:13:33;6.10;;;5.17;;
6378;SDS011;3222;48.858;10.128;2024-01-16T02:16:00;7.47;;;5.60;;
6378;SDS011;3222;48.858;10.128;2024-01-16T02:18:26;8.70;;;5.07;;
6378;SDS011;3222;48.858;10.128;2024-01-16T02:20:52;5.90;;;4.73;;
6378;SDS011;3222;48.858;10.128;2024-01-16T02:23:24;7.93;;;5.13;;
6378;SDS011;3222;48.858;10.128;2024-01-16T02:25:52;7.57;;;5.37;;
6378;SDS011;3222;48.858;10.128;2024-01-16T02:28:18;5.87;;;5.00;;
6378;SDS011;3222;48.858;10.128;2024-01-16T02:30:44;5.50;;;4.87;;
6378;SDS011;3222;48.858;10.128;2024-01-16T02:33:09;5.77;;;5.03;;
6378;SDS011;3222;48.858;10.128;2024-01-16T02:35:35;5.87;;;5.03;;
6378;SDS011;3222;48.858;10.128;2024-01-16T02:38:01;5.60;;;5.00;;
6378;SDS011;3222;48.858;10.128;2024-01-16T02:40:26;7.73;;;5.40;;
6378;SDS011;3222;48.858;10.128;2024-01-16T02:42:52;5.30;;;4.80;;
6378;SDS011;3222;48.858;10.128;2024-01-16T02:45:18;5.47;;;4.83;;
6378;SDS011;3222;48.858;10.128;2024-01-16T02:47:43;7.23;;;5.10;;
6378;SDS011;3222;48.858;10.128;2024-01-16T02:50:09;7.83;;;5.80;;
6378;SDS011;3222;48.858;10.128;2024-01-16T02:52:35;7.80;;;5.80;;
6378;SDS011;3222;48.858;10.128;2024-01-16T02:55:01;7.17;;;5.23;;
6378;SDS011;3222;48.858;10.128;2024-01-16T02:57:26;6.53;;;5.50;;
6378;SDS011;3222;48.858;10.128;2024-01-16T02:59:52;7.03;;;5.67;;
6378;SDS011;3222;48.858;10.128;2024-01-16T03:02:18;6.70;;;5.30;;
6378;SDS011;3222;48.858;10.128;2024-01-16T03:04:43;6.43;;;5.80;;
6378;SDS011;3222;48.858;10.128;2024-01-16T03:07:09;7.37;;;5.33;;
6378;SDS011;3222;48.858;10.128;2024-01-16T03:09:35;6.90;;;5.27;;
6378;SDS011;3222;48.858;10.128;2024-01-16T03:12:01;8.93;;;5.60;;
6378;SDS011;3222;48.858;10.128;2024-01-16T03:14:27;7.30;;;5.40;;
6378;SDS011;3222;48.858;10.128;2024-01-16T03:16:53;7.53;;;5.30;;
6378;SDS011;3222;48.858;10.128;2024-01-16T03:19:18;6.87;;;5.20;;
6378;SDS011;3222;48.858;10.128;2024-01-16T03:21:44;7.00;;;5.60;;
6378;SDS011;3222;48.858;10.128;2024-01-16T03:24:10;8.67;;;5.67;;
6378;SDS011;3222;48.858;10.128;2024-01-16T03:26:36;6.13;;;5.17;;
6378;SDS011;3222;48.858;10.128;2024-01-16T03:29:03;6.57;;;5.50;;
6378;SDS011;3222;48.858;10.128;2024-01-16T03:31:29;7.10;;;5.23;;
6378;SDS011;3222;48.858;10.128;2024-01-16T03:33:55;5.93;;;5.13;;
6378;SDS011;3222;48.858;10.128;2024-01-16T03:36:21;9.03;;;5.37;;
6378;SDS011;3222;48.858;10.128;2024-01-16T03:38:46;6.83;;;5.00;;
6378;SDS011;3222;48.858;10.128;2024-01-16T03:41:12;6.97;;;4.90;;
6378;SDS011;3222;48.858;10.128;2024-01-16T03:43:38;8.40;;;5.53;;
6378;SDS011;3222;48.858;10.128;2024-01-16T03:46:05;5.70;;;5.10;;
6378;SDS011;3222;48.858;10.128;2024-01-16T03:48:30;6.03;;;4.93;;
6378;SDS011;3222;48.858;10.128;2024-01-16T03:50:56;5.87;;;5.17;;
6378;SDS011;3222;48.858;10.128;2024-01-16T03:53:22;7.67;;;5.80;;
6378;SDS011;3222;48.858;10.128;2024-01-16T03:55:48;6.17;;;5.57;;
6378;SDS011;3222;48.858;10.128;2024-01-16T03:58:15;5.50;;;4.87;;
6378;SDS011;3222;48.858;10.128;2024-01-16T04:00:44;6.50;;;5.37;;
6378;SDS011;3222;48.858;10.128;2024-01-16T04:03:09;7.20;;;5.03;;
6378;SDS011;3222;48.858;10.128;2024-01-16T04:05:36;7.13;;;5.20;;
6378;SDS011;3222;48.858;10.128;2024-01-16T04:08:02;6.07;;;4.87;;
6378;SDS011;3222;48.858;10.128;2024-01-16T04:10:27;5.60;;;4.60;;
6378;SDS011;3222;48.858;10.128;2024-01-16T04:12:53;7.17;;;5.13;;
6378;SDS011;3222;48.858;10.128;2024-01-16T04:15:19;6.60;;;4.97;;
6378;SDS011;3222;48.858;10.128;2024-01-16T04:17:44;7.10;;;4.70;;
6378;SDS011;3222;48.858;10.128;2024-01-16T04:20:10;6.03;;;5.40;;
6378;SDS011;3222;48.858;10.128;2024-01-16T04:22:36;6.10;;;5.07;;
6378;SDS011;3222;48.858;10.128;2024-01-16T04:25:02;5.67;;;5.07;;
6378;SDS011;3222;48.858;10.128;2024-01-16T04:27:30;5.07;;;4.17;;
6378;SDS011;3222;48.858;10.128;2024-01-16T04:29:56;7.13;;;5.10;;
6378;SDS011;3222;48.858;10.128;2024-01-16T04:32:22;5.73;;;4.67;;
6378;SDS011;3222;48.858;10.128;2024-01-16T04:34:48;6.23;;;5.07;;
6378;SDS011;3222;48.858;10.128;2024-01-16T04:37:13;5.80;;;4.80;;
6378;SDS011;3222;48.858;10.128;2024-01-16T04:39:39;6.33;;;5.40;;
6378;SDS011;3222;48.858;10.128;2024-01-16T04:42:05;7.73;;;5.60;;
6378;SDS011;3222;48.858;10.128;2024-01-16T04:44:30;5.67;;;5.03;;
6378;SDS011;3222;48.858;10.128;2024-01-16T04:46:56;5.77;;;4.80;;
6378;SDS011;3222;48.858;10.128;2024-01-16T04:49:21;6.13;;;5.17;;
6378;SDS011;3222;48.858;10.128;2024-01-16T04:51:47;5.93;;;5.17;;
6378;SDS011;3222;48.858;10.128;2024-01-16T04:54:13;6.90;;;4.77;;
6378;SDS011;3222;48.858;10.128;2024-01-16T04:56:38;6.13;;;5.00;;
6378;SDS011;3222;48.858;10.128;2024-01-16T04:59:04;6.00;;;5.40;;
6378;SDS011;3222;48.858;10.128;2024-01-16T05:01:29;7.13;;;5.27;;
6378;SDS011;3222;48.858;10.128;2024-01-16T05:03:55;6.50;;;4.87;;
6378;SDS011;3222;48.858;10.128;2024-01-16T05:06:21;5.53;;;4.90;;
6378;SDS011;3222;48.858;10.128;2024-01-16T05:08:47;5.60;;;5.00;;
6378;SDS011;3222;48.858;10.128;2024-01-16T05:11:13;6.23;;;5.40;;
6378;SDS011;3222;48.858;10.128;2024-01-16T05:13:39;7.57;;;5.17;;
6378;SDS011;3222;48.858;10.128;2024-01-16T05:16:05;5.67;;;5.03;;
6378;SDS011;3222;48.858;10.128;2024-01-16T05:18:31;7.33;;;5.07;;
6378;SDS011;3222;48.858;10.128;2024-01-16T05:20:58;7.00;;;5.10;;
6378;SDS011;3222;48.858;10.128;2024-01-16T05:23:24;7.43;;;5.87;;
6378;SDS011;3222;48.858;10.128;2024-01-16T05:25:50;6.07;;;4.63;;
6378;SDS011;3222;48.858;10.128;2024-01-16T05:28:15;5.33;;;4.73;;
6378;SDS011;3222;48.858;10.128;2024-01-16T05:30:43;5.20;;;4.57;;
6378;SDS011;3222;48.858;10.128;2024-01-16T05:33:09;5.67;;;4.63;;
6378;SDS011;3222;48.858;10.128;2024-01-16T05:35:34;6.07;;;4.87;;
6378;SDS011;3222;48.858;10.128;2024-01-16T05:38:00;5.87;;;4.93;;
6378;SDS011;3222;48.858;10.128;2024-01-16T05:40:26;6.53;;;5.20;;
6378;SDS011;3222;48.858;10.128;2024-01-16T05:42:51;6.67;;;5.07;;
6378;SDS011;3222;48.858;10.128;2024-01-16T05:45:17;7.23;;;5.63;;
6378;SDS011;3222;48.858;10.128;2024-01-16T05:47:43;12.40;;;7.73;;
6378;SDS011;3222;48.858;10.128;2024-01-16T05:50:09;26.00;;;14.63;;
6378;SDS011;3222;48.858;10.128;2024-01-16T05:52:35;28.10;;;14.17;;
6378;SDS011;3222;48.858;10.128;2024-01-16T05:55:01;25.10;;;12.47;;
6378;SDS011;3222;48.858;10.128;2024-01-16T05:57:29;18.60;;;10.83;;
6378;SDS011;3222;48.858;10.128;2024-01-16T05:59:58;20.77;;;14.10;;
6378;SDS011;3222;48.858;10.128;2024-01-16T06:02:27;10.23;;;7.47;;
6378;SDS011;3222;48.858;10.128;2024-01-16T06:04:53;9.63;;;5.60;;
6378;SDS011;3222;48.858;10.128;2024-01-16T06:07:18;6.27;;;5.30;;
6378;SDS011;3222;48.858;10.128;2024-01-16T06:09:44;7.93;;;6.03;;
6378;SDS011;3222;48.858;10.128;2024-01-16T06:12:10;6.97;;;5.40;;
6378;SDS011;3222;48.858;10.128;2024-01-16T06:14:37;7.73;;;5.83;;
6378;SDS011;3222;48.858;10.128;2024-01-16T06:17:03;10.03;;;5.90;;
6378;SDS011;3222;48.858;10.128;2024-01-16T06:19:30;7.60;;;5.67;;
6378;SDS011;3222;48.858;10.128;2024-01-16T06:21:56;7.20;;;5.33;;
6378;SDS011;3222;48.858;10.128;2024-01-16T06:24:22;5.87;;;5.10;;
6378;SDS011;3222;48.858;10.128;2024-01-16T06:26:48;8.83;;;6.67;;
6378;SDS011;3222;48.858;10.128;2024-01-16T06:29:13;8.10;;;6.97;;
6378;SDS011;3222;48.858;10.128;2024-01-16T06:31:39;10.83;;;8.13;;
6378;SDS011;3222;48.858;10.128;2024-01-16T06:34:05;11.17;;;8.70;;
6378;SDS011;3222;48.858;10.128;2024-01-16T06:36:31;9.93;;;8.13;;
6378;SDS011;3222;48.858;10.128;2024-01-16T06:38:56;9.80;;;6.97;;
6378;SDS011;3222;48.858;10.128;2024-01-16T06:41:22;7.20;;;5.90;;
6378;SDS011;3222;48.858;10.128;2024-01-16T06:43:47;8.87;;;5.93;;
6378;SDS011;3222;48.858;10.128;2024-01-16T06:46:13;7.00;;;6.10;;
6378;SDS011;3222;48.858;10.128;2024-01-16T06:48:39;7.93;;;6.23;;
6378;SDS011;3222;48.858;10.128;2024-01-16T06:51:05;9.30;;;6.07;;
6378;SDS011;3222;48.858;10.128;2024-01-16T06:53:30;7.87;;;6.37;;
6378;SDS011;3222;48.858;10.128;2024-01-16T06:55:56;7.83;;;5.80;;
6378;SDS011;3222;48.858;10.128;2024-01-16T06:58:22;8.63;;;5.93;;
6378;SDS011;3222;48.858;10.128;2024-01-16T07:00:47;8.00;;;5.57;;
6378;SDS011;3222;48.858;10.128;2024-01-16T07:03:13;9.33;;;6.50;;
6378;SDS011;3222;48.858;10.128;2024-01-16T07:05:39;12.83;;;7.50;;
6378;SDS011;3222;48.858;10.128;2024-01-16T07:08:09;14.67;;;7.87;;
6378;SDS011;3222;48.858;10.128;2024-01-16T07:10:35;14.10;;;7.90;;
6378;SDS011;3222;48.858;10.128;2024-01-16T07:13:01;10.43;;;7.37;;
6378;SDS011;3222;48.858;10.128;2024-01-16T07:15:27;10.53;;;7.90;;
6378;SDS011;3222;48.858;10.128;2024-01-16T07:17:53;13.70;;;9.37;;
6378;SDS011;3222;48.858;10.128;2024-01-16T07:20:19;11.97;;;7.13;;
6378;SDS011;3222;48.858;10.128;2024-01-16T07:22:45;8.97;;;6.50;;
6378;SDS011;3222;48.858;10.128;2024-01-16T07:25:11;7.77;;;5.93;;
6378;SDS011;3222;48.858;10.128;2024-01-16T07:27:36;8.30;;;6.37;;
6378;SDS011;3222;48.858;10.128;2024-01-16T07:30:05;9.10;;;5.50;;
6378;SDS011;3222;48.858;10.128;2024-01-16T07:32:32;8.80;;;5.40;;
6378;SDS011;3222;48.858;10.128;2024-01-16T07:34:57;6.27;;;5.40;;
6378;SDS011;3222;48.858;10.128;2024-01-16T07:37:23;6.60;;;5.40;;
6378;SDS011;3222;48.858;10.128;2024-01-16T07:39:49;7.37;;;5.37;;
6378;SDS011;3222;48.858;10.128;2024-01-16T07:42:15;7.13;;;5.70;;
6378;SDS011;3222;48.858;10.128;2024-01-16T07:44:40;8.17;;;5.90;;
6378;SDS011;3222;48.858;10.128;2024-01-16T07:47:06;7.07;;;5.37;;
6378;SDS011;3222;48.858;10.128;2024-01-16T07:49:32;6.93;;;5.90;;
6378;SDS011;3222;48.858;10.128;2024-01-16T07:51:58;7.43;;;5.70;;
6378;SDS011;3222;48.858;10.128;2024-01-16T07:54:24;6.63;;;5.40;;
6378;SDS011;3222;48.858;10.128;2024-01-16T07:56:51;8.30;;;5.30;;
6378;SDS011;3222;48.858;10.128;2024-01-16T07:59:16;7.27;;;5.70;;
6378;SDS011;3222;48.858;10.128;2024-01-16T08:01:42;7.10;;;5.43;;
6378;SDS011;3222;48.858;10.128;2024-01-16T08:04:08;10.03;;;5.20;;
6378;SDS011;3222;48.858;10.128;2024-01-16T08:06:34;9.43;;;5.37;;
6378;SDS011;3222;48.858;10.128;2024-01-16T08:08:59;7.03;;;4.80;;
6378;SDS011;3222;48.858;10.128;2024-01-16T08:11:25;6.13;;;5.00;;
6378;SDS011;3222;48.858;10.128;2024-01-16T08:13:51;6.00;;;4.93;;
6378;SDS011;3222;48.858;10.128;2024-01-16T08:16:16;6.03;;;4.77;;
6378;SDS011;3222;48.858;10.128;2024-01-16T08:18:42;7.80;;;5.03;;
6378;SDS011;3222;48.858;10.128;2024-01-16T08:21:07;6.17;;;5.07;;
6378;SDS011;3222;48.858;10.128;2024-01-16T08:23:34;9.37;;;5.93;;
6378;SDS011;3222;48.858;10.128;2024-01-16T08:25:59;5.53;;;4.93;;
6378;SDS011;3222;48.858;10.128;2024-01-16T08:28:26;6.83;;;5.40;;
6378;SDS011;3222;48.858;10.128;2024-01-16T08:30:52;8.40;;;5.60;;
6378;SDS011;3222;48.858;10.128;2024-01-16T08:33:18;9.80;;;6.37;;
6378;SDS011;3222;48.858;10.128;2024-01-16T08:35:43;8.80;;;7.27;;
6378;SDS011;3222;48.858;10.128;2024-01-16T08:38:09;7.80;;;6.70;;
6378;SDS011;3222;48.858;10.128;2024-01-16T08:40:35;8.97;;;6.27;;
6378;SDS011;3222;48.858;10.128;2024-01-16T08:43:01;9.03;;;6.20;;
6378;SDS011;3222;48.858;10.128;2024-01-16T08:45:26;7.30;;;6.17;;
6378;SDS011;3222;48.858;10.128;2024-01-16T08:47:52;11.77;;;6.10;;
6378;SDS011;3222;48.858;10.128;2024-01-16T08:50:18;7.80;;;5.70;;
6378;SDS011;3222;48.858;10.128;2024-01-16T08:52:43;10.40;;;6.37;;
6378;SDS011;3222;48.858;10.128;2024-01-16T08:55:09;6.33;;;5.70;;
6378;SDS011;3222;48.858;10.128;2024-01-16T08:57:35;6.27;;;5.67;;
6378;SDS011;3222;48.858;10.128;2024-01-16T09:00:02;8.63;;;5.60;;
6378;SDS011;3222;48.858;10.128;2024-01-16T09:02:29;10.17;;;5.90;;
6378;SDS011;3222;48.858;10.128;2024-01-16T09:04:56;6.20;;;5.03;;
6378;SDS011;3222;48.858;10.128;2024-01-16T09:07:22;5.93;;;4.77;;
6378;SDS011;3222;48.858;10.128;2024-01-16T09:09:47;6.67;;;4.77;;
6378;SDS011;3222;48.858;10.128;2024-01-16T09:12:13;7.03;;;4.80;;
6378;SDS011;3222;48.858;10.128;2024-01-16T09:14:40;5.80;;;4.30;;
6378;SDS011;3222;48.858;10.128;2024-01-16T09:17:06;6.77;;;4.37;;
6378;SDS011;3222;48.858;10.128;2024-01-16T09:19:32;8.27;;;4.77;;
6378;SDS011;3222;48.858;10.128;2024-01-16T09:21:57;6.20;;;4.50;;
6378;SDS011;3222;48.858;10.128;2024-01-16T09:24:23;6.33;;;4.80;;
6378;SDS011;3222;48.858;10.128;2024-01-16T09:26:49;6.37;;;4.70;;
6378;SDS011;3222;48.858;10.128;2024-01-16T09:29:14;4.50;;;4.10;;
6378;SDS011;3222;48.858;10.128;2024-01-16T09:31:41;6.07;;;4.50;;
6378;SDS011;3222;48.858;10.128;2024-01-16T09:34:07;5.10;;;4.30;;
6378;SDS011;3222;48.858;10.128;2024-01-16T09:36:33;5.07;;;4.60;;
6378;SDS011;3222;48.858;10.128;2024-01-16T09:39:01;4.97;;;4.20;;
6378;SDS011;3222;48.858;10.128;2024-01-16T09:41:28;5.67;;;4.23;;
6378;SDS011;3222;48.858;10.128;2024-01-16T09:43:53;4.87;;;4.47;;
6378;SDS011;3222;48.858;10.128;2024-01-16T09:46:22;4.33;;;3.90;;
6378;SDS011;3222;48.858;10.128;2024-01-16T09:48:49;5.07;;;4.43;;
6378;SDS011;3222;48.858;10.128;2024-01-16T09:51:18;5.03;;;4.13;;
6378;SDS011;3222;48.858;10.128;2024-01-16T09:53:44;5.10;;;4.60;;
6378;SDS011;3222;48.858;10.128;2024-01-16T09:56:21;4.90;;;4.40;;
6378;SDS011;3222;48.858;10.128;2024-01-16T09:58:48;5.47;;;4.27;;
6378;SDS011;3222;48.858;10.128;2024-01-16T10:01:15;5.37;;;4.17;;
6378;SDS011;3222;48.858;10.128;2024-01-16T10:03:44;5.13;;;4.23;;
6378;SDS011;3222;48.858;10.128;2024-01-16T10:06:10;7.00;;;4.50;;
6378;SDS011;3222;48.858;10.128;2024-01-16T10:08:37;5.30;;;4.50;;
6378;SDS011;3222;48.858;10.128;2024-01-16T10:11:03;5.20;;;4.27;;
6378;SDS011;3222;48.858;10.128;2024-01-16T10:13:28;10.47;;;5.33;;
6378;SDS011;3222;48.858;10.128;2024-01-16T10:15:54;7.17;;;4.53;;
6378;SDS011;3222;48.858;10.128;2024-01-16T10:18:27;6.00;;;4.50;;
6378;SDS011;3222;48.858;10.128;2024-01-16T10:20:55;7.60;;;4.63;;
6378;SDS011;3222;48.858;10.128;2024-01-16T10:23:27;6.10;;;4.57;;
6378;SDS011;3222;48.858;10.128;2024-01-16T10:28:33;5.47;;;4.83;;
6378;SDS011;3222;48.858;10.128;2024-01-16T10:31:05;6.00;;;4.57;;
6378;SDS011;3222;48.858;10.128;2024-01-16T10:33:32;6.40;;;5.30;;
6378;SDS011;3222;48.858;10.128;2024-01-16T10:38:52;7.43;;;5.40;;
6378;SDS011;3222;48.858;10.128;2024-01-16T10:41:28;6.33;;;4.67;;
6378;SDS011;3222;48.858;10.128;2024-01-16T10:44:04;6.17;;;5.40;;
6378;SDS011;3222;48.858;10.128;2024-01-16T10:46:32;6.57;;;4.83;;
6378;SDS011;3222;48.858;10.128;2024-01-16T10:49:01;7.20;;;5.20;;
6378;SDS011;3222;48.858;10.128;2024-01-16T10:51:30;5.40;;;4.90;;
6378;SDS011;3222;48.858;10.128;2024-01-16T10:56:27;7.83;;;4.90;;
6378;SDS011;3222;48.858;10.128;2024-01-16T10:59:03;5.87;;;4.97;;
6378;SDS011;3222;48.858;10.128;2024-01-16T11:01:43;5.23;;;4.60;;
6378;SDS011;3222;48.858;10.128;2024-01-16T11:04:13;7.23;;;4.33;;
6378;SDS011;3222;48.858;10.128;2024-01-16T11:06:40;6.63;;;5.13;;
6378;SDS011;3222;48.858;10.128;2024-01-16T11:09:07;5.73;;;4.40;;
6378;SDS011;3222;48.858;10.128;2024-01-16T11:11:34;7.07;;;4.80;;
6378;SDS011;3222;48.858;10.128;2024-01-16T11:14:03;5.93;;;4.20;;
6378;SDS011;3222;48.858;10.128;2024-01-16T11:16:30;5.63;;;4.50;;
6378;SDS011;3222;48.858;10.128;2024-01-16T11:18:57;6.80;;;4.47;;
6378;SDS011;3222;48.858;10.128;2024-01-16T11:21:23;6.70;;;5.07;;
6378;SDS011;3222;48.858;10.128;2024-01-16T11:23:50;5.13;;;4.33;;
6378;SDS011;3222;48.858;10.128;2024-01-16T11:26:24;7.33;;;5.03;;
6378;SDS011;3222;48.858;10.128;2024-01-16T11:28:56;5.80;;;5.00;;
6378;SDS011;3222;48.858;10.128;2024-01-16T11:31:31;6.43;;;4.73;;
6378;SDS011;3222;48.858;10.128;2024-01-16T11:33:58;7.53;;;4.77;;
6378;SDS011;3222;48.858;10.128;2024-01-16T11:39:19;7.80;;;4.93;;
6378;SDS011;3222;48.858;10.128;2024-01-16T11:41:52;5.87;;;4.73;;
6378;SDS011;3222;48.858;10.128;2024-01-16T11:47:07;6.90;;;4.40;;
6378;SDS011;3222;48.858;10.128;2024-01-16T11:49:34;6.23;;;4.53;;
6378;SDS011;3222;48.858;10.128;2024-01-16T11:52:01;5.33;;;3.73;;
6378;SDS011;3222;48.858;10.128;2024-01-16T11:54:27;6.07;;;4.30;;
6378;SDS011;3222;48.858;10.128;2024-01-16T11:57:01;5.47;;;4.37;;
6378;SDS011;3222;48.858;10.128;2024-01-16T11:59:57;4.80;;;4.00;;
6378;SDS011;3222;48.858;10.128;2024-01-16T12:05:12;7.77;;;4.93;;
6378;SDS011;3222;48.858;10.128;2024-01-16T12:07:52;6.27;;;4.50;;
6378;SDS011;3222;48.858;10.128;2024-01-16T12:10:22;7.13;;;4.90;;
6378;SDS011;3222;48.858;10.128;2024-01-16T12:12:49;8.13;;;4.67;;
6378;SDS011;3222;48.858;10.128;2024-01-16T12:15:19;6.47;;;4.40;;
6378;SDS011;3222;48.858;10.128;2024-01-16T12:17:56;5.43;;;4.33;;
6378;SDS011;3222;48.858;10.128;2024-01-16T12:20:23;6.40;;;4.30;;
6378;SDS011;3222;48.858;10.128;2024-01-16T12:22:54;5.27;;;4.03;;
6378;SDS011;3222;48.858;10.128;2024-01-16T12:25:21;6.87;;;4.50;;
6378;SDS011;3222;48.858;10.128;2024-01-16T12:27:53;4.80;;;4.10;;
6378;SDS011;3222;48.858;10.128;2024-01-16T12:30:20;5.00;;;3.80;;
6378;SDS011;3222;48.858;10.128;2024-01-16T12:32:46;4.60;;;4.10;;
6378;SDS011;3222;48.858;10.128;2024-01-16T12:35:12;7.03;;;4.00;;
6378;SDS011;3222;48.858;10.128;2024-01-16T12:37:44;6.50;;;4.30;;
6378;SDS011;3222;48.858;10.128;2024-01-16T12:40:26;7.80;;;4.20;;
6378;SDS011;3222;48.858;10.128;2024-01-16T12:42:52;4.77;;;3.60;;
6378;SDS011;3222;48.858;10.128;2024-01-16T12:45:18;5.13;;;3.97;;
6378;SDS011;3222;48.858;10.128;2024-01-16T12:47:49;5.37;;;4.30;;
6378;SDS011;3222;48.858;10.128;2024-01-16T12:50:20;5.93;;;4.10;;
6378;SDS011;3222;48.858;10.128;2024-01-16T12:52:48;4.67;;;3.83;;
6378;SDS011;3222;48.858;10.128;2024-01-16T12:55:14;4.90;;;4.07;;
6378;SDS011;3222;48.858;10.128;2024-01-16T12:57:41;5.90;;;4.10;;
6378;SDS011;3222;48.858;10.128;2024-01-16T13:00:25;6.30;;;3.80;;
6378;SDS011;3222;48.858;10.128;2024-01-16T13:02:53;4.97;;;4.10;;
6378;SDS011;3222;48.858;10.128;2024-01-16T13:05:23;5.20;;;4.03;;
6378;SDS011;3222;48.858;10.128;2024-01-16T13:08:02;4.63;;;4.10;;
6378;SDS011;3222;48.858;10.128;2024-01-16T13:10:31;6.53;;;4.30;;
6378;SDS011;3222;48.858;10.128;2024-01-16T13:13:13;5.20;;;4.03;;
6378;SDS011;3222;48.858;10.128;2024-01-16T13:15:45;4.80;;;3.77;;
6378;SDS011;3222;48.858;10.128;2024-01-16T13:18:24;3.97;;;3.57;;
6378;SDS011;3222;48.858;10.128;2024-01-16T13:20:51;4.83;;;3.20;;
6378;SDS011;3222;48.858;10.128;2024-01-16T13:23:18;5.73;;;3.53;;
6378;SDS011;3222;48.858;10.128;2024-01-16T13:25:46;4.40;;;3.50;;
6378;SDS011;3222;48.858;10.128;2024-01-16T13:28:13;6.47;;;3.70;;
6378;SDS011;3222;48.858;10.128;2024-01-16T13:30:39;6.57;;;4.03;;
6378;SDS011;3222;48.858;10.128;2024-01-16T13:33:06;19.57;;;8.10;;
6378;SDS011;3222;48.858;10.128;2024-01-16T13:35:34;11.00;;;5.20;;
6378;SDS011;3222;48.858;10.128;2024-01-16T13:38:07;10.37;;;5.30;;
6378;SDS011;3222;48.858;10.128;2024-01-16T13:40:33;10.23;;;5.20;;
6378;SDS011;3222;48.858;10.128;2024-01-16T13:43:00;13.13;;;6.43;;
6378;SDS011;3222;48.858;10.128;2024-01-16T13:45:26;10.30;;;5.93;;
6378;SDS011;3222;48.858;10.128;2024-01-16T13:47:53;10.20;;;5.00;;
6378;SDS011;3222;48.858;10.128;2024-01-16T13:50:22;8.93;;;4.87;;
6378;SDS011;3222;48.858;10.128;2024-01-16T13:52:48;11.30;;;5.33;;
6378;SDS011;3222;48.858;10.128;2024-01-16T13:55:14;8.30;;;4.80;;
6378;SDS011;3222;48.858;10.128;2024-01-16T13:57:40;6.17;;;4.73;;
6378;SDS011;3222;48.858;10.128;2024-01-16T14:00:07;6.30;;;4.60;;
6378;SDS011;3222;48.858;10.128;2024-01-16T14:02:41;7.23;;;4.70;;
6378;SDS011;3222;48.858;10.128;2024-01-16T14:05:12;6.93;;;4.40;;
6378;SDS011;3222;48.858;10.128;2024-01-16T14:07:45;6.87;;;4.27;;
6378;SDS011;3222;48.858;10.128;2024-01-16T14:10:14;7.30;;;4.03;;
6378;SDS011;3222;48.858;10.128;2024-01-16T14:12:41;5.10;;;3.80;;
6378;SDS011;3222;48.858;10.128;2024-01-16T14:15:14;5.33;;;3.53;;
6378;SDS011;3222;48.858;10.128;2024-01-16T14:17:54;5.80;;;3.83;;
6378;SDS011;3222;48.858;10.128;2024-01-16T14:20:21;5.17;;;4.17;;
6378;SDS011;3222;48.858;10.128;2024-01-16T14:22:52;5.87;;;3.77;;
6378;SDS011;3222;48.858;10.128;2024-01-16T14:25:18;5.47;;;3.93;;
6378;SDS011;3222;48.858;10.128;2024-01-16T14:27:50;4.00;;;3.37;;
6378;SDS011;3222;48.858;10.128;2024-01-16T14:30:30;4.30;;;3.77;;
6378;SDS011;3222;48.858;10.128;2024-01-16T14:32:57;5.50;;;4.33;;
6378;SDS011;3222;48.858;10.128;2024-01-16T14:35:23;6.90;;;4.73;;
6378;SDS011;3222;48.858;10.128;2024-01-16T14:37:49;5.60;;;4.03;;
6378;SDS011;3222;48.858;10.128;2024-01-16T14:40:15;4.03;;;3.63;;
6378;SDS011;3222;48.858;10.128;2024-01-16T14:42:48;5.53;;;4.23;;
6378;SDS011;3222;48.858;10.128;2024-01-16T14:45:16;7.63;;;4.10;;
6378;SDS011;3222;48.858;10.128;2024-01-16T14:47:42;4.40;;;3.87;;
6378;SDS011;3222;48.858;10.128;2024-01-16T14:50:10;4.40;;;3.97;;
6378;SDS011;3222;48.858;10.128;2024-01-16T14:52:42;4.43;;;3.87;;
6378;SDS011;3222;48.858;10.128;2024-01-16T14:55:10;6.03;;;4.33;;
6378;SDS011;3222;48.858;10.128;2024-01-16T14:57:39;6.40;;;4.33;;
6378;SDS011;3222;48.858;10.128;2024-01-16T15:00:14;5.47;;;4.10;;
6378;SDS011;3222;48.858;10.128;2024-01-16T15:02:43;5.03;;;4.33;;
6378;SDS011;3222;48.858;10.128;2024-01-16T15:05:09;6.10;;;3.90;;
6378;SDS011;3222;48.858;10.128;2024-01-16T15:07:34;5.23;;;4.17;;
6378;SDS011;3222;48.858;10.128;2024-01-16T15:10:02;7.10;;;4.10;;
6378;SDS011;3222;48.858;10.128;2024-01-16T15:12:31;5.67;;;4.10;;
6378;SDS011;3222;48.858;10.128;2024-01-16T15:14:56;4.83;;;3.87;;
6378;SDS011;3222;48.858;10.128;2024-01-16T15:17:22;5.27;;;4.17;;
6378;SDS011;3222;48.858;10.128;2024-01-16T15:19:48;6.83;;;3.90;;